This is the latest recevied weather packets stored in our database for station/object YO8KGT-13. If no packets are shown the sender has not sent any weather packets the latest 1 day(s).
| Time | Temp. | Humidity | Pressure | Rain* | Wind** | Luminosity | Snow |
|---|---|---|---|---|---|---|---|
| 1778060665 | 31.11° C | 26% | 943 hPa | 0 mm | - | - | - |
| 1778060068 | 30.56° C | 27% | 943 hPa | 0 mm | - | - | - |
| 1778057966 | 28.33° C | 30% | 943 hPa | 0 mm | - | - | - |
| 1778056766 | 27.78° C | 32% | 943 hPa | 0 mm | - | - | - |
| 1778056477 | 27.78° C | 32% | 943 hPa | 0 mm | - | - | - |
| 1778056165 | 27.22° C | 33% | 943 hPa | 0 mm | - | - | - |
| 1778053770 | 25.56° C | 38% | 943 hPa | 0 mm | - | - | - |
| 1778053180 | 25° C | 39% | 943 hPa | 0 mm | - | - | - |
| 1778050765 | 22.78° C | 48% | 943 hPa | 0 mm | - | - | - |
| 1778049872 | 21.11° C | 50% | 943 hPa | 0 mm | - | - | - |
| 1778049565 | 20.56° C | 51% | 943 hPa | 0 mm | - | - | - |
| 1778049266 | 20° C | 52% | 943 hPa | 0 mm | - | - | - |
| 1778048967 | 19.44° C | 53% | 943 hPa | 0 mm | - | - | - |
| 1778048366 | 18.89° C | 54% | 944 hPa | 0 mm | - | - | - |
| 1778048065 | 17.78° C | 55% | 943 hPa | 0 mm | - | - | - |
| 1778046565 | 16.11° C | 57% | 944 hPa | 0 mm | - | - | - |
| 1778045970 | 15.56° C | 58% | 944 hPa | 0 mm | - | - | - |
| 1778044777 | 14.44° C | 60% | 943 hPa | 0 mm | - | - | - |
| 1778044465 | 13.89° C | 60% | 943 hPa | 0 mm | - | - | - |
| 1778043885 | 13.33° C | 61% | 943 hPa | 0 mm | - | - | - |
| 1778043264 | 13.33° C | 61% | 943 hPa | 0 mm | - | - | - |
| 1778042965 | 12.78° C | 61% | 943 hPa | 0 mm | - | - | - |
| 1778042067 | 12.78° C | 61% | 943 hPa | 0 mm | - | - | - |
| 1778040870 | 12.78° C | 61% | 943 hPa | 0 mm | - | - | - |
| 1778039973 | 11.67° C | 61% | 943 hPa | 0 mm | - | - | - |
* Rain latest hour (hover to see other rain measurements)
** Current wind speed in m/s (hover to see current wind gust speed)